createdAt,value
2017-11-17T00:01:04.270Z,21.40
2017-11-17T00:03:32.583Z,20.00
2017-11-17T00:06:00.183Z,19.30
2017-11-17T00:08:27.734Z,21.40
2017-11-17T00:10:55.293Z,19.80
2017-11-17T00:13:22.891Z,16.07
2017-11-17T00:15:50.437Z,7.27
2017-11-17T00:18:18.906Z,20.47
2017-11-17T00:20:46.446Z,9.07
2017-11-17T00:23:13.987Z,22.63
2017-11-17T00:25:41.584Z,19.77
2017-11-17T00:28:09.131Z,24.53
2017-11-17T00:30:36.752Z,29.80
2017-11-17T00:33:04.290Z,24.17
2017-11-17T00:35:32.603Z,22.73
2017-11-17T00:38:00.187Z,21.63
2017-11-17T00:40:27.758Z,22.40
2017-11-17T00:42:55.719Z,23.20
2017-11-17T00:45:23.275Z,22.43
2017-11-17T00:47:50.812Z,24.47
2017-11-17T00:50:18.427Z,23.77
2017-11-17T00:52:45.983Z,23.33
2017-11-17T00:55:14.379Z,22.30
2017-11-17T00:57:41.927Z,24.90
2017-11-17T01:00:10.337Z,24.90
2017-11-17T01:02:37.937Z,22.30
2017-11-17T01:05:05.553Z,24.70
2017-11-17T01:07:33.158Z,22.80
2017-11-17T01:10:00.833Z,22.90
2017-11-17T01:12:29.169Z,23.07
2017-11-17T01:14:56.760Z,22.67
2017-11-17T01:17:24.302Z,22.03
2017-11-17T01:19:51.891Z,20.70
2017-11-17T01:22:20.394Z,21.40
2017-11-17T01:24:47.998Z,20.90
2017-11-17T01:27:15.577Z,22.17
2017-11-17T01:29:43.140Z,24.37
2017-11-17T01:32:10.718Z,19.93
2017-11-17T01:34:38.257Z,18.53
2017-11-17T01:37:05.817Z,21.30
2017-11-17T01:39:33.403Z,19.73
2017-11-17T01:42:01.717Z,18.97
2017-11-17T01:44:29.302Z,20.37
2017-11-17T01:46:56.856Z,19.83
2017-11-17T01:49:24.409Z,18.67
2017-11-17T01:51:52.010Z,20.67
2017-11-17T01:54:19.553Z,17.63
2017-11-17T01:56:47.143Z,21.00
2017-11-17T01:59:14.687Z,17.83
2017-11-17T02:01:42.986Z,18.03
2017-11-17T02:04:10.575Z,18.77
2017-11-17T02:06:38.111Z,18.77
2017-11-17T02:09:05.724Z,18.83
2017-11-17T02:11:33.297Z,17.60
2017-11-17T02:14:01.037Z,18.60
2017-11-17T02:16:28.643Z,20.30
2017-11-17T02:18:56.343Z,19.47
2017-11-17T02:21:24.222Z,17.07
2017-11-17T02:23:51.778Z,20.30
2017-11-17T02:26:19.330Z,21.80
2017-11-17T02:28:47.049Z,20.23
2017-11-17T02:31:15.364Z,18.03
2017-11-17T02:33:43.346Z,18.87
2017-11-17T02:36:10.907Z,19.17
2017-11-17T02:38:38.545Z,20.60
2017-11-17T02:41:06.138Z,20.17
2017-11-17T02:43:33.696Z,18.83
2017-11-17T02:46:01.604Z,18.90
2017-11-17T02:48:29.164Z,20.27
2017-11-17T02:50:57.498Z,19.60
2017-11-17T02:53:25.095Z,20.17
2017-11-17T02:55:53.427Z,18.67
2017-11-17T02:58:21.402Z,20.03
2017-11-17T03:00:48.964Z,19.40
2017-11-17T03:03:16.515Z,19.57
2017-11-17T03:05:44.238Z,17.97
2017-11-17T03:08:11.781Z,18.70
2017-11-17T03:10:39.705Z,20.40
2017-11-17T03:13:07.259Z,20.47
2017-11-17T03:15:34.807Z,20.20
2017-11-17T03:18:02.558Z,21.27
2017-11-17T03:20:30.150Z,19.20
2017-11-17T03:22:57.779Z,20.97
2017-11-17T03:25:25.319Z,22.20
2017-11-17T03:27:53.610Z,19.73
2017-11-17T03:30:21.196Z,21.50
2017-11-17T03:32:48.758Z,22.00
2017-11-17T03:35:16.338Z,20.80
2017-11-17T03:37:43.900Z,20.90
2017-11-17T03:40:11.574Z,21.00
2017-11-17T03:42:39.926Z,22.07
2017-11-17T03:45:07.471Z,22.10
2017-11-17T03:47:35.061Z,21.10
2017-11-17T03:50:02.624Z,20.60
2017-11-17T03:52:30.182Z,20.97
2017-11-17T03:54:57.772Z,22.03
2017-11-17T03:57:25.318Z,20.27
2017-11-17T03:59:52.902Z,20.40
2017-11-17T04:02:20.458Z,22.10
2017-11-17T04:04:48.024Z,20.17
2017-11-17T04:07:15.623Z,20.60
2017-11-17T04:09:43.170Z,20.50
2017-11-17T04:12:10.834Z,22.77
2017-11-17T04:14:38.399Z,18.97
2017-11-17T04:17:05.943Z,19.60
2017-11-17T04:19:33.530Z,21.70
2017-11-17T04:22:01.084Z,22.53
2017-11-17T04:24:28.678Z,21.87
2017-11-17T04:26:56.999Z,21.87
2017-11-17T04:29:24.540Z,21.67
2017-11-17T04:31:52.123Z,22.03
2017-11-17T04:34:19.683Z,21.37
2017-11-17T04:36:47.261Z,22.03
2017-11-17T04:39:14.811Z,23.33
2017-11-17T04:41:42.363Z,21.20
2017-11-17T04:44:09.950Z,21.27
2017-11-17T04:46:37.506Z,20.87
2017-11-17T04:49:05.091Z,21.23
2017-11-17T04:51:32.630Z,23.20
2017-11-17T04:54:00.190Z,20.17
2017-11-17T04:56:28.547Z,22.20
2017-11-17T04:58:56.094Z,16.20
2017-11-17T05:01:23.915Z,20.93
2017-11-17T05:03:52.227Z,23.40
2017-11-17T05:06:19.767Z,24.07
2017-11-17T05:08:47.362Z,21.20
2017-11-17T05:11:14.923Z,23.10
2017-11-17T05:13:42.649Z,20.53
2017-11-17T05:16:10.232Z,19.80
2017-11-17T05:18:37.792Z,22.47
2017-11-17T05:21:05.372Z,20.47
2017-11-17T05:23:32.942Z,19.53
2017-11-17T05:26:02.047Z,21.03
2017-11-17T05:28:29.631Z,18.53
2017-11-17T05:30:57.954Z,18.80
2017-11-17T05:33:25.726Z,17.60
2017-11-17T05:35:53.285Z,19.83
2017-11-17T05:38:20.843Z,18.10
2017-11-17T05:40:51.194Z,18.20
2017-11-17T05:43:19.512Z,16.00
2017-11-17T05:45:47.093Z,15.87
2017-11-17T05:48:15.995Z,18.50
2017-11-17T05:50:43.547Z,18.47
2017-11-17T05:53:11.170Z,17.30
2017-11-17T05:55:38.728Z,13.80
2017-11-17T05:58:06.281Z,17.90
2017-11-17T06:00:34.669Z,16.30
2017-11-17T06:03:02.228Z,17.57
2017-11-17T06:05:29.860Z,16.53
2017-11-17T06:07:58.203Z,17.83
2017-11-17T06:10:25.758Z,18.57
2017-11-17T06:12:53.340Z,17.43
2017-11-17T06:15:20.900Z,17.67
2017-11-17T06:17:48.554Z,16.43
2017-11-17T06:20:16.133Z,16.70
2017-11-17T06:22:43.713Z,18.50
2017-11-17T06:25:12.035Z,17.03
2017-11-17T06:27:39.630Z,15.37
2017-11-17T06:30:07.166Z,15.17
2017-11-17T06:32:34.747Z,15.60
2017-11-17T06:35:02.332Z,15.10
2017-11-17T06:37:30.643Z,15.80
2017-11-17T06:39:58.209Z,15.90
2017-11-17T06:42:25.841Z,15.23
2017-11-17T06:44:53.391Z,13.60
2017-11-17T06:47:20.999Z,14.47
2017-11-17T06:49:48.759Z,15.27
2017-11-17T06:52:16.310Z,15.50
2017-11-17T06:54:43.856Z,15.07
2017-11-17T06:57:11.438Z,14.07
2017-11-17T06:59:38.992Z,15.67
2017-11-17T07:02:06.611Z,14.80
2017-11-17T07:04:34.209Z,14.10
2017-11-17T07:07:01.768Z,16.40
2017-11-17T07:09:29.337Z,14.90
2017-11-17T07:11:56.997Z,15.93
2017-11-17T07:14:24.596Z,16.97
2017-11-17T07:16:52.932Z,17.00
2017-11-17T07:19:20.539Z,17.03
2017-11-17T07:21:48.870Z,17.00
2017-11-17T07:24:16.425Z,16.73
2017-11-17T07:26:44.115Z,17.30
2017-11-17T07:29:11.700Z,17.87
2017-11-17T07:31:39.315Z,20.70
2017-11-17T07:34:06.886Z,15.67
2017-11-17T07:36:34.444Z,19.03
2017-11-17T07:39:03.547Z,20.70
2017-11-17T07:41:31.094Z,19.90
2017-11-17T07:43:58.691Z,20.17
2017-11-17T07:46:26.293Z,16.67
2017-11-17T07:48:54.035Z,18.40
2017-11-17T07:51:21.582Z,19.00
2017-11-17T07:53:49.904Z,20.27
2017-11-17T07:56:17.609Z,18.03
2017-11-17T07:58:45.161Z,19.43
2017-11-17T08:01:13.595Z,20.03
2017-11-17T08:03:41.153Z,19.87
2017-11-17T08:06:08.708Z,21.93
2017-11-17T08:08:36.315Z,21.40
2017-11-17T08:11:03.868Z,18.20
2017-11-17T08:13:31.737Z,17.47
2017-11-17T08:15:59.315Z,19.07
2017-11-17T08:18:37.898Z,19.57
2017-11-17T08:21:05.457Z,18.23
2017-11-17T08:23:33.019Z,20.63
2017-11-17T08:26:00.609Z,16.93
2017-11-17T08:28:28.172Z,18.63
2017-11-17T08:30:56.530Z,16.17
2017-11-17T08:33:24.076Z,18.10
2017-11-17T08:35:51.615Z,17.60
2017-11-17T08:38:19.234Z,19.47
2017-11-17T08:40:47.543Z,18.27
2017-11-17T08:43:15.134Z,17.70
2017-11-17T08:45:42.806Z,16.90
2017-11-17T08:48:10.410Z,17.27
2017-11-17T08:50:37.969Z,16.57
2017-11-17T08:53:05.519Z,16.57
2017-11-17T08:55:33.099Z,17.87
2017-11-17T08:58:00.671Z,18.43
2017-11-17T09:00:28.491Z,17.80
2017-11-17T09:02:56.188Z,18.60
2017-11-17T09:05:23.752Z,17.30
2017-11-17T09:07:51.357Z,17.40
2017-11-17T09:10:18.912Z,20.00
2017-11-17T09:12:48.123Z,16.30
2017-11-17T09:15:16.451Z,17.57
2017-11-17T09:17:44.019Z,15.60
2017-11-17T09:20:11.596Z,17.50
2017-11-17T09:22:39.156Z,16.13
2017-11-17T09:25:06.854Z,16.43
2017-11-17T09:27:35.176Z,16.37
2017-11-17T09:30:02.788Z,16.23
2017-11-17T09:32:31.267Z,16.23
2017-11-17T09:34:59.590Z,15.50
2017-11-17T09:37:27.231Z,17.43
2017-11-17T09:39:55.518Z,16.57
2017-11-17T09:42:23.057Z,17.37
2017-11-17T09:44:50.643Z,17.37
2017-11-17T09:47:18.353Z,15.60
2017-11-17T09:49:46.226Z,15.70
2017-11-17T09:52:13.781Z,14.80
2017-11-17T09:54:42.110Z,17.53
2017-11-17T09:57:09.688Z,16.53
2017-11-17T09:59:37.382Z,15.27
2017-11-17T10:02:05.752Z,16.30
2017-11-17T10:04:33.378Z,16.60
2017-11-17T10:07:00.942Z,17.33
2017-11-17T10:09:28.543Z,18.13
2017-11-17T10:11:56.149Z,15.07
2017-11-17T10:14:23.753Z,16.77
2017-11-17T10:16:51.308Z,18.70
2017-11-17T10:19:18.871Z,18.60
2017-11-17T10:21:46.564Z,15.30
2017-11-17T10:24:14.130Z,16.07
2017-11-17T10:26:41.893Z,15.17
2017-11-17T10:29:09.460Z,16.03
2017-11-17T10:31:37.030Z,16.63
2017-11-17T10:34:04.623Z,16.83
2017-11-17T10:36:33.607Z,19.07
2017-11-17T10:39:02.520Z,17.87
2017-11-17T10:41:30.100Z,17.67
2017-11-17T10:43:58.404Z,16.93
2017-11-17T10:46:25.984Z,17.33
2017-11-17T10:48:53.582Z,19.07
2017-11-17T10:51:21.464Z,17.87
2017-11-17T10:53:49.786Z,16.10
2017-11-17T10:56:19.227Z,20.07
2017-11-17T10:58:46.830Z,16.10
2017-11-17T11:01:14.507Z,15.70
2017-11-17T11:03:42.138Z,18.27
2017-11-17T11:06:09.693Z,18.40
2017-11-17T11:08:37.303Z,17.73
2017-11-17T11:11:10.510Z,18.10
2017-11-17T11:13:38.051Z,18.90
2017-11-17T11:16:05.667Z,17.20
2017-11-17T11:18:33.215Z,18.87
2017-11-17T11:21:01.530Z,19.20
2017-11-17T11:23:29.344Z,19.07
2017-11-17T11:25:56.901Z,19.80
2017-11-17T11:28:24.487Z,19.50
2017-11-17T11:30:52.812Z,13.93
2017-11-17T11:33:20.386Z,10.87
2017-11-17T11:35:47.970Z,16.90
2017-11-17T11:38:15.528Z,14.60
2017-11-17T11:40:43.854Z,13.60
2017-11-17T11:43:11.447Z,12.97
2017-11-17T11:45:39.757Z,13.63
2017-11-17T11:48:08.369Z,13.33
2017-11-17T11:50:35.920Z,12.03
2017-11-17T11:53:03.495Z,13.00
2017-11-17T11:55:31.074Z,13.67
2017-11-17T11:57:58.634Z,9.27
2017-11-17T12:00:26.250Z,11.10
2017-11-17T12:02:53.793Z,8.23
2017-11-17T12:05:21.352Z,6.10
2017-11-17T12:07:48.943Z,10.50
2017-11-17T12:10:16.484Z,6.67
2017-11-17T12:12:44.077Z,10.60
2017-11-17T12:15:11.622Z,11.23
2017-11-17T12:17:39.210Z,9.10
2017-11-17T12:20:06.766Z,9.40
2017-11-17T12:22:34.312Z,7.30
2017-11-17T12:25:01.904Z,6.80
2017-11-17T12:27:29.450Z,7.33
2017-11-17T12:29:57.050Z,8.23
2017-11-17T12:32:25.390Z,9.00
2017-11-17T12:34:52.945Z,6.73
2017-11-17T12:37:20.551Z,7.00
2017-11-17T12:39:48.099Z,7.00
2017-11-17T12:42:16.472Z,5.77
2017-11-17T12:44:44.060Z,5.60
2017-11-17T12:47:11.704Z,5.13
2017-11-17T12:49:40.290Z,7.40
2017-11-17T12:52:07.851Z,5.70
2017-11-17T12:54:35.445Z,7.10
2017-11-17T12:57:03.097Z,5.40
2017-11-17T12:59:30.679Z,6.93
2017-11-17T13:01:58.260Z,5.60
2017-11-17T13:04:25.892Z,5.73
2017-11-17T13:06:53.480Z,7.17
2017-11-17T13:09:21.020Z,5.87
2017-11-17T13:11:48.569Z,6.20
2017-11-17T13:14:16.165Z,5.13
2017-11-17T13:16:43.721Z,6.00
2017-11-17T13:19:12.837Z,7.07
2017-11-17T13:21:40.400Z,6.37
2017-11-17T13:24:08.752Z,6.00
2017-11-17T13:26:36.304Z,5.20
2017-11-17T13:29:03.894Z,4.77
2017-11-17T13:31:31.451Z,5.90
2017-11-17T13:33:59.759Z,5.37
2017-11-17T13:36:27.347Z,4.90
2017-11-17T13:38:54.909Z,6.20
2017-11-17T13:41:22.514Z,4.57
2017-11-17T13:43:50.839Z,4.80
2017-11-17T13:46:18.375Z,4.57
2017-11-17T13:48:45.955Z,5.07
2017-11-17T13:51:13.530Z,4.90
2017-11-17T13:53:41.135Z,6.23
2017-11-17T13:56:08.699Z,4.77
2017-11-17T13:58:36.240Z,5.10
2017-11-17T14:01:03.959Z,3.60
2017-11-17T14:03:31.510Z,5.33
2017-11-17T14:05:59.112Z,4.23
2017-11-17T14:08:27.433Z,5.17
2017-11-17T14:10:54.989Z,5.50
2017-11-17T14:13:22.570Z,4.40
2017-11-17T14:15:50.119Z,5.37
2017-11-17T14:18:17.710Z,5.07
2017-11-17T14:20:45.284Z,4.33
2017-11-17T14:23:13.626Z,4.57
2017-11-17T14:25:41.206Z,4.00
2017-11-17T14:28:08.766Z,5.60
2017-11-17T14:30:36.355Z,5.57
2017-11-17T14:33:03.911Z,4.77
2017-11-17T14:35:31.631Z,4.63
2017-11-17T14:37:59.173Z,4.47
2017-11-17T14:40:26.712Z,5.47
2017-11-17T14:42:54.333Z,3.60
2017-11-17T14:45:21.889Z,5.50
2017-11-17T14:47:49.887Z,4.30
2017-11-17T14:50:17.439Z,4.57
2017-11-17T14:52:45.003Z,4.07
2017-11-17T14:55:12.575Z,4.20
2017-11-17T14:57:40.895Z,5.00
2017-11-17T15:00:08.744Z,5.17
2017-11-17T15:02:36.301Z,4.43
2017-11-17T15:05:03.838Z,4.70
2017-11-17T15:07:31.422Z,4.37
2017-11-17T15:09:59.010Z,4.60
2017-11-17T15:12:26.949Z,3.40
2017-11-17T15:14:54.518Z,4.13
2017-11-17T15:17:22.048Z,3.77
2017-11-17T15:19:49.615Z,4.53
2017-11-17T15:22:17.163Z,4.77
2017-11-17T15:24:45.022Z,3.73
2017-11-17T15:27:12.583Z,4.83
2017-11-17T15:29:40.895Z,4.00
2017-11-17T15:32:08.475Z,3.80
2017-11-17T15:34:36.016Z,4.33
2017-11-17T15:37:04.015Z,4.23
2017-11-17T15:39:31.556Z,5.40
2017-11-17T15:41:59.108Z,4.80
2017-11-17T15:44:26.687Z,4.17
2017-11-17T15:46:54.235Z,5.87
2017-11-17T15:49:22.236Z,4.50
2017-11-17T15:51:49.770Z,4.80
2017-11-17T15:54:17.335Z,5.33
2017-11-17T15:56:44.925Z,4.93
2017-11-17T15:59:13.289Z,5.10
2017-11-17T16:01:41.237Z,5.87
2017-11-17T16:04:08.807Z,5.87
2017-11-17T16:06:36.359Z,6.00
2017-11-17T16:09:03.950Z,5.20
2017-11-17T16:11:31.511Z,7.03
2017-11-17T16:14:00.155Z,7.63
2017-11-17T16:16:27.870Z,6.27
2017-11-17T16:18:55.448Z,6.40
2017-11-17T16:21:23.042Z,5.90
2017-11-17T16:23:50.638Z,5.97
2017-11-17T16:26:18.583Z,9.63
2017-11-17T16:28:46.122Z,9.50
2017-11-17T16:31:13.679Z,6.60
2017-11-17T16:33:41.261Z,6.40
2017-11-17T16:36:08.803Z,7.87
2017-11-17T16:38:36.668Z,13.30
2017-11-17T16:41:04.238Z,13.33
2017-11-17T16:43:31.791Z,10.90
2017-11-17T16:45:59.548Z,10.27
2017-11-17T16:48:27.088Z,9.57
2017-11-17T16:50:54.681Z,8.13
2017-11-17T16:53:23.846Z,8.97
2017-11-17T16:55:51.775Z,8.63
2017-11-17T16:58:20.098Z,9.00
2017-11-17T17:00:47.653Z,8.80
2017-11-17T17:03:15.315Z,7.20
2017-11-17T17:05:42.862Z,8.10
2017-11-17T17:08:10.887Z,6.43
2017-11-17T17:10:38.449Z,7.20
2017-11-17T17:13:06.770Z,9.70
2017-11-17T17:15:34.656Z,11.43
2017-11-17T17:18:02.206Z,8.43
2017-11-17T17:20:30.201Z,7.00
2017-11-17T17:22:57.744Z,8.23
2017-11-17T17:25:25.299Z,9.70
2017-11-17T17:27:52.891Z,10.27
2017-11-17T17:30:20.440Z,11.20
2017-11-17T17:32:48.515Z,11.43
2017-11-17T17:35:16.086Z,11.73
2017-11-17T17:37:43.630Z,11.40
2017-11-17T17:40:11.235Z,11.30
2017-11-17T17:42:38.779Z,11.83
2017-11-17T17:45:07.455Z,12.50
2017-11-17T17:47:35.015Z,10.23
2017-11-17T17:50:02.574Z,10.80
2017-11-17T17:52:30.347Z,9.17
2017-11-17T17:54:58.028Z,9.77
2017-11-17T17:57:26.147Z,12.20
2017-11-17T17:59:53.856Z,15.67
2017-11-17T18:02:22.267Z,14.43
2017-11-17T18:04:49.923Z,12.87
2017-11-17T18:07:17.490Z,11.07
2017-11-17T18:09:45.085Z,11.80
2017-11-17T18:12:12.928Z,11.10
2017-11-17T18:14:40.807Z,10.70
2017-11-17T18:17:08.425Z,10.80
2017-11-17T18:19:36.012Z,10.00
2017-11-17T18:22:03.815Z,10.20
2017-11-17T18:24:34.028Z,12.37
2017-11-17T18:27:01.947Z,10.70
2017-11-17T18:29:29.511Z,11.50
2017-11-17T18:31:57.082Z,14.63
2017-11-17T18:34:24.821Z,13.50
2017-11-17T18:36:52.469Z,15.30
2017-11-17T18:39:20.488Z,14.97
2017-11-17T18:41:48.083Z,10.50
2017-11-17T18:44:15.651Z,10.83
2017-11-17T18:46:44.031Z,11.57
2017-11-17T18:49:11.641Z,13.00
2017-11-17T18:51:42.470Z,12.80
2017-11-17T18:54:10.118Z,13.80
2017-11-17T18:56:37.803Z,14.07
2017-11-17T18:59:05.511Z,14.53
2017-11-17T19:01:34.088Z,14.93
2017-11-17T19:04:02.080Z,13.47
2017-11-17T19:06:29.640Z,14.97
2017-11-17T19:08:57.191Z,13.83
2017-11-17T19:11:25.670Z,14.93
2017-11-17T19:13:54.040Z,16.87
2017-11-17T19:16:22.790Z,16.87
2017-11-17T19:18:50.338Z,19.83
2017-11-17T19:21:17.900Z,18.50
2017-11-17T19:23:45.630Z,17.63
2017-11-17T19:26:13.194Z,16.00
2017-11-17T19:28:40.787Z,15.53
2017-11-17T19:31:08.332Z,16.40
2017-11-17T19:33:36.397Z,15.00
2017-11-17T19:36:04.028Z,14.77
2017-11-17T19:38:31.623Z,16.60
2017-11-17T19:40:59.232Z,18.07
2017-11-17T19:43:26.784Z,13.87
2017-11-17T19:45:54.840Z,15.00
2017-11-17T19:48:22.410Z,16.20
2017-11-17T19:50:50.099Z,15.70
2017-11-17T19:53:17.695Z,15.47
2017-11-17T19:55:45.259Z,14.67
2017-11-17T19:58:13.242Z,17.30
2017-11-17T20:00:40.899Z,16.20
2017-11-17T20:03:08.513Z,18.10
2017-11-17T20:05:37.510Z,17.03
2017-11-17T20:08:05.147Z,17.93
2017-11-17T20:10:33.056Z,16.80
2017-11-17T20:13:00.661Z,16.43
2017-11-17T20:15:31.867Z,17.37
2017-11-17T20:17:59.483Z,18.40
2017-11-17T20:20:27.034Z,18.17
2017-11-17T20:22:54.625Z,17.50
2017-11-17T20:25:22.528Z,18.83
2017-11-17T20:27:50.085Z,18.20
2017-11-17T20:30:17.650Z,16.53
2017-11-17T20:32:45.769Z,16.80
2017-11-17T20:35:14.105Z,16.97
2017-11-17T20:37:41.712Z,17.60
2017-11-17T20:40:10.042Z,18.17
2017-11-17T20:42:37.617Z,17.70
2017-11-17T20:45:07.123Z,17.63
2017-11-17T20:47:34.684Z,16.70
2017-11-17T20:50:03.005Z,17.30
2017-11-17T20:52:33.469Z,18.67
2017-11-17T20:55:01.023Z,17.80
2017-11-17T20:57:28.882Z,17.83
2017-11-17T20:59:56.418Z,16.00
2017-11-17T21:02:23.972Z,16.23
2017-11-17T21:04:51.615Z,17.10
2017-11-17T21:07:19.189Z,16.97
2017-11-17T21:09:47.831Z,16.90
2017-11-17T21:12:15.390Z,16.23
2017-11-17T21:14:42.977Z,17.70
2017-11-17T21:17:12.020Z,16.63
2017-11-17T21:19:39.594Z,17.60
2017-11-17T21:22:07.230Z,16.47
2017-11-17T21:24:34.885Z,17.70
2017-11-17T21:27:02.743Z,17.63
2017-11-17T21:29:30.308Z,16.80
2017-11-17T21:31:58.096Z,17.60
2017-11-17T21:34:25.770Z,19.73
2017-11-17T21:36:53.326Z,18.90
2017-11-17T21:39:21.200Z,18.37
2017-11-17T21:41:48.748Z,16.50
2017-11-17T21:44:16.312Z,16.53
2017-11-17T21:46:43.928Z,17.53
2017-11-17T21:49:11.477Z,18.03
2017-11-17T21:51:40.126Z,17.07
2017-11-17T21:54:07.702Z,16.17
2017-11-17T21:56:35.256Z,17.10
2017-11-17T21:59:02.858Z,17.63
2017-11-17T22:01:30.414Z,18.60
2017-11-17T22:03:58.535Z,17.40
2017-11-17T22:06:26.116Z,16.73
2017-11-17T22:08:54.456Z,18.13
2017-11-17T22:11:22.044Z,17.30
2017-11-17T22:13:49.630Z,16.60
2017-11-17T22:16:17.566Z,15.97
2017-11-17T22:18:45.141Z,17.23
2017-11-17T22:21:12.711Z,17.40
2017-11-17T22:23:41.084Z,17.37
2017-11-17T22:26:08.652Z,16.30
2017-11-17T22:28:36.682Z,16.23
2017-11-17T22:31:04.262Z,16.87
2017-11-17T22:33:31.957Z,17.03
2017-11-17T22:35:59.551Z,16.60
2017-11-17T22:38:27.124Z,16.43
2017-11-17T22:40:54.979Z,15.17
2017-11-17T22:43:22.545Z,16.27
2017-11-17T22:45:50.095Z,17.60
2017-11-17T22:48:17.703Z,17.50
2017-11-17T22:50:45.489Z,20.23
2017-11-17T22:53:13.519Z,21.47
2017-11-17T22:55:41.087Z,21.67
2017-11-17T22:58:08.711Z,19.50
2017-11-17T23:00:36.386Z,24.97
2017-11-17T23:03:03.934Z,25.60
2017-11-17T23:05:31.816Z,26.83
2017-11-17T23:07:59.640Z,23.70
2017-11-17T23:10:27.223Z,23.40
2017-11-17T23:12:55.471Z,23.00
2017-11-17T23:15:23.803Z,25.27
2017-11-17T23:17:51.771Z,26.80
2017-11-17T23:20:19.409Z,25.77
2017-11-17T23:22:47.540Z,24.90
2017-11-17T23:25:16.789Z,24.10
2017-11-17T23:27:44.595Z,23.80
2017-11-17T23:30:12.566Z,35.57
2017-11-17T23:32:40.905Z,30.30
2017-11-17T23:35:08.476Z,33.37
2017-11-17T23:37:36.546Z,33.27
2017-11-17T23:40:04.136Z,34.50
2017-11-17T23:42:31.739Z,32.43
2017-11-17T23:44:59.334Z,32.27
2017-11-17T23:47:26.927Z,30.60
2017-11-17T23:49:54.788Z,37.40
2017-11-17T23:52:22.345Z,32.97
2017-11-17T23:54:50.666Z,33.87
2017-11-17T23:57:18.347Z,30.37
2017-11-17T23:59:45.898Z,47.30
